Time;durP1;ratioP1;P1;durP2;ratioP2;P2;SDS_P1;SDS_P2;PMS_P1;PMS_P2;Temp;Humidity;BMP_temperature;BMP_pressure;BME280_temperature;BME280_humidity;BME280_pressure;Samples;Min_cycle;Max_cycle;Signal;HPM_P1;HPM_P2
2023/06/13 00:00:13;;;;;;;3.97;2.72;;;22.40;67.50;;;;;;6239405;28;20025;-69
2023/06/13 00:03:15;;;;;;;6.60;2.60;;;22.30;67.40;;;;;;6239407;28;20446;-69
2023/06/13 00:06:17;;;;;;;5.47;1.92;;;22.30;67.50;;;;;;6239082;28;20033;-69
2023/06/13 00:09:18;;;;;;;8.70;2.42;;;22.30;67.50;;;;;;6239024;28;20182;-69
2023/06/13 00:12:20;;;;;;;3.63;2.22;;;22.30;67.60;;;;;;6237616;28;20057;-68
2023/06/13 00:15:21;;;;;;;4.85;2.25;;;22.20;67.60;;;;;;6239788;28;20826;-71
2023/06/13 00:18:25;;;;;;;4.43;1.92;;;22.20;67.70;;;;;;6237955;28;20037;-68
2023/06/13 00:21:26;;;;;;;4.47;1.85;;;22.20;67.80;;;;;;6237959;28;20112;-69
2023/06/13 00:24:26;;;;;;;2.05;1.67;;;22.20;67.80;;;;;;6238971;28;20343;-70
2023/06/13 00:27:27;;;;;;;2.83;2.00;;;22.20;67.70;;;;;;6237627;28;20515;-68
2023/06/13 00:30:29;;;;;;;3.22;2.05;;;22.20;67.60;;;;;;6239327;28;20441;-70
2023/06/13 00:33:31;;;;;;;3.72;2.25;;;22.20;67.50;;;;;;6221027;28;20025;-70
2023/06/13 00:36:37;;;;;;;5.03;2.10;;;22.20;67.50;;;;;;6237598;28;20030;-70
2023/06/13 00:39:42;;;;;;;4.63;2.28;;;22.20;67.50;;;;;;6237549;28;20036;-69
2023/06/13 00:42:42;;;;;;;4.57;2.15;;;22.20;67.40;;;;;;6220990;28;20443;-69
2023/06/13 00:45:43;;;;;;;4.10;2.33;;;22.20;68.20;;;;;;6239456;28;20033;-69
2023/06/13 00:48:45;;;;;;;3.20;1.92;;;22.20;67.30;;;;;;6239207;28;20072;-69
2023/06/13 00:51:46;;;;;;;2.58;1.70;;;22.30;67.20;;;;;;6238851;28;20115;-69
2023/06/13 00:54:47;;;;;;;3.58;2.10;;;22.30;67.10;;;;;;6237390;28;20061;-69
2023/06/13 00:57:53;;;;;;;3.28;2.03;;;22.30;67.00;;;;;;6239189;28;20103;-69
2023/06/13 01:00:54;;;;;;;6.72;2.25;;;22.30;66.80;;;;;;6238914;28;20045;-69
2023/06/13 01:03:57;;;;;;;6.25;2.10;;;22.40;66.60;;;;;;6239047;28;20064;-69
2023/06/13 01:07:00;;;;;;;4.38;2.15;;;22.40;66.60;;;;;;6220723;28;20119;-68
2023/06/13 01:10:01;;;;;;;3.97;1.85;;;22.40;66.60;;;;;;6238851;28;20036;-70
2023/06/13 01:13:09;;;;;;;4.22;1.73;;;22.40;66.60;;;;;;6238502;28;20025;-69
2023/06/13 01:16:26;;;;;;;2.47;1.80;;;22.40;66.40;;;;;;6220729;28;20036;-70
2023/06/13 01:19:37;;;;;;;3.78;1.95;;;22.40;66.30;;;;;;6241630;28;20025;-70
2023/06/13 01:22:45;;;;;;;6.03;2.30;;;22.40;66.30;;;;;;6241400;28;20047;-70
2023/06/13 01:25:52;;;;;;;5.53;2.25;;;22.50;66.30;;;;;;6241746;28;20402;-69
2023/06/13 01:28:56;;;;;;;10.82;2.47;;;22.50;66.30;;;;;;6243082;28;20057;-69
2023/06/13 01:31:58;;;;;;;3.05;2.25;;;22.50;66.30;;;;;;6242685;28;20390;-70
2023/06/13 01:35:00;;;;;;;3.30;2.00;;;22.40;66.40;;;;;;6242764;28;20029;-69
2023/06/13 01:38:01;;;;;;;4.50;2.08;;;22.40;66.40;;;;;;6242562;28;20087;-71
2023/06/13 01:41:02;;;;;;;4.85;1.92;;;22.40;66.50;;;;;;6241077;28;20115;-69
2023/06/13 01:44:06;;;;;;;5.75;2.10;;;22.40;66.50;;;;;;6242438;28;20128;-69
2023/06/13 01:47:15;;;;;;;3.35;1.73;;;22.40;66.50;;;;;;6242489;28;20441;-69
2023/06/13 01:50:27;;;;;;;3.58;1.55;;;22.40;66.30;;;;;;6240714;28;20415;-68
2023/06/13 01:53:36;;;;;;;7.00;1.90;;;22.40;65.90;;;;;;6240697;28;20033;-69
2023/06/13 01:56:40;;;;;;;2.53;1.73;;;22.40;65.90;;;;;;6240823;28;20037;-69
2023/06/13 01:59:43;;;;;;;3.88;1.70;;;22.40;65.70;;;;;;6223984;28;20108;-69
2023/06/13 02:02:45;;;;;;;4.90;1.67;;;22.30;65.50;;;;;;6240044;28;20399;-70
2023/06/13 02:05:48;;;;;;;2.67;1.63;;;22.30;65.40;;;;;;6240456;28;20728;-69
2023/06/13 02:08:49;;;;;;;4.20;1.80;;;22.20;65.40;;;;;;6241537;28;20036;-71
2023/06/13 02:11:50;;;;;;;5.68;1.92;;;22.20;65.60;;;;;;6241760;28;20093;-69
2023/06/13 02:14:51;;;;;;;2.67;1.42;;;22.20;65.70;;;;;;6240361;28;20041;-69
2023/06/13 02:17:55;;;;;;;4.75;1.33;;;22.20;65.60;;;;;;6240539;28;20116;-72
2023/06/13 02:20:56;;;;;;;2.45;1.35;;;22.30;65.70;;;;;;6240325;28;20447;-69
2023/06/13 02:23:58;;;;;;;2.60;1.52;;;22.30;65.50;;;;;;6240039;28;20045;-69
2023/06/13 02:26:59;;;;;;;2.33;1.38;;;22.30;65.40;;;;;;6241474;28;20076;-69
2023/06/13 02:30:00;;;;;;;1.73;1.20;;;22.30;65.50;;;;;;6241579;28;20061;-69
2023/06/13 02:33:03;;;;;;;3.45;1.17;;;22.40;65.20;;;;;;6240914;28;20174;-69
2023/06/13 02:36:05;;;;;;;9.60;1.67;;;22.40;64.90;;;;;;6242027;28;20128;-70
2023/06/13 02:39:09;;;;;;;5.13;1.92;;;22.40;64.80;;;;;;6241862;28;20070;-70
2023/06/13 02:42:10;;;;;;;2.20;1.50;;;22.50;64.70;;;;;;6239865;28;20497;-69
2023/06/13 02:45:11;;;;;;;2.28;1.52;;;22.50;64.70;;;;;;6240171;28;20072;-69
2023/06/13 02:48:12;;;;;;;2.33;1.73;;;22.50;64.70;;;;;;6240153;28;20030;-69
2023/06/13 02:51:13;;;;;;;3.53;1.80;;;22.50;64.80;;;;;;6239459;28;20032;-69
2023/06/13 02:54:14;;;;;;;4.45;1.40;;;22.50;64.80;;;;;;6223344;28;20029;-69
2023/06/13 02:57:15;;;;;;;2.65;1.70;;;22.50;64.70;;;;;;6239885;28;20034;-69
2023/06/13 03:00:16;;;;;;;2.33;1.60;;;22.50;64.70;;;;;;6239760;28;20041;-71
2023/06/13 03:03:23;;;;;;;2.25;1.88;;;22.60;64.60;;;;;;6239217;28;20485;-69
2023/06/13 03:06:24;;;;;;;3.15;1.58;;;22.50;64.50;;;;;;6239247;28;20416;-68
2023/06/13 03:09:25;;;;;;;3.00;1.45;;;22.60;64.60;;;;;;6226630;28;20060;-69
2023/06/13 03:12:26;;;;;;;1.48;1.15;;;22.60;64.40;;;;;;6214405;28;20034;-69
2023/06/13 03:15:27;;;;;;;2.50;1.40;;;22.60;64.40;;;;;;6214928;28;20033;-68
2023/06/13 03:18:30;;;;;;;1.58;1.30;;;22.60;64.40;;;;;;6214503;28;20029;-68
2023/06/13 03:21:31;;;;;;;2.03;1.50;;;22.60;64.40;;;;;;6214251;28;20072;-69
2023/06/13 03:24:32;;;;;;;3.90;2.10;;;22.60;64.60;;;;;;6238865;28;20513;-69
2023/06/13 03:27:35;;;;;;;1.77;1.38;;;22.60;64.60;;;;;;6222432;28;20084;-70
2023/06/13 03:30:37;;;;;;;4.55;1.58;;;22.60;64.60;;;;;;6222615;28;20038;-70
2023/06/13 03:33:38;;;;;;;2.75;1.75;;;22.60;64.70;;;;;;6238567;28;20026;-71
2023/06/13 03:36:43;;;;;;;3.22;1.80;;;22.60;65.80;;;;;;6238919;28;20084;-69
2023/06/13 03:39:44;;;;;;;5.68;1.75;;;22.50;65.00;;;;;;6238783;28;20100;-70
2023/06/13 03:42:46;;;;;;;3.70;1.80;;;22.50;65.20;;;;;;6237858;28;20036;-70
2023/06/13 03:45:48;;;;;;;3.38;1.90;;;22.50;65.40;;;;;;6238714;28;20025;-69
2023/06/13 03:48:51;;;;;;;1.40;1.30;;;22.40;65.40;;;;;;6238745;28;20044;-70
2023/06/13 03:51:52;;;;;;;2.88;1.30;;;22.40;65.60;;;;;;6238306;28;20057;-70
2023/06/13 03:54:53;;;;;;;2.38;1.35;;;22.40;65.60;;;;;;6238596;28;20565;-69
2023/06/13 03:57:53;;;;;;;2.58;1.75;;;22.40;65.70;;;;;;6238446;28;20036;-69
2023/06/13 04:00:54;;;;;;;3.83;1.23;;;22.40;65.60;;;;;;6238183;28;20742;-68
2023/06/13 04:03:57;;;;;;;2.47;1.58;;;22.40;65.70;;;;;;6239873;28;20324;-69
2023/06/13 04:07:04;;;;;;;2.28;1.70;;;22.50;65.60;;;;;;6238778;28;20048;-70
2023/06/13 04:10:05;;;;;;;2.00;1.60;;;22.50;65.40;;;;;;6240393;28;20040;-69
2023/06/13 04:13:09;;;;;;;3.25;1.60;;;22.50;65.20;;;;;;6238044;28;20022;-68
2023/06/13 04:16:10;;;;;;;4.68;1.70;;;22.50;64.90;;;;;;6238042;28;20089;-69
2023/06/13 04:19:17;;;;;;;2.20;1.30;;;22.40;64.70;;;;;;6239784;28;20273;-69
2023/06/13 04:22:19;;;;;;;5.07;1.55;;;22.50;64.60;;;;;;6239132;28;20510;-69
2023/06/13 04:25:21;;;;;;;5.80;1.90;;;22.50;64.60;;;;;;6238182;28;20045;-69
2023/06/13 04:28:24;;;;;;;3.42;1.50;;;22.60;64.70;;;;;;6237986;28;20041;-69
2023/06/13 04:31:26;;;;;;;2.22;1.40;;;22.50;64.70;;;;;;6239532;28;20060;-69
2023/06/13 04:34:29;;;;;;;3.22;1.75;;;22.50;64.60;;;;;;6238157;28;20092;-69
2023/06/13 04:37:30;;;;;;;2.65;1.83;;;22.60;64.60;;;;;;6239410;28;20037;-69
2023/06/13 04:40:33;;;;;;;7.93;1.70;;;22.50;64.60;;;;;;6239469;28;20037;-69
2023/06/13 04:43:35;;;;;;;3.88;1.98;;;22.50;64.60;;;;;;6238927;28;20112;-71
2023/06/13 04:46:38;;;;;;;2.00;1.33;;;22.60;64.60;;;;;;6237547;28;20073;-68
2023/06/13 04:49:40;;;;;;;3.83;1.90;;;22.60;64.40;;;;;;6239249;28;20029;-69
2023/06/13 04:52:41;;;;;;;2.05;1.85;;;22.60;64.40;;;;;;6238855;28;20026;-69
2023/06/13 04:55:43;;;;;;;2.42;1.80;;;22.60;64.40;;;;;;6242433;28;20138;-68
2023/06/13 04:58:43;;;;;;;4.60;2.35;;;22.60;64.40;;;;;;6244042;28;20037;-69
2023/06/13 05:01:47;;;;;;;7.53;2.38;;;22.60;64.40;;;;;;6243942;28;20119;-70
2023/06/13 05:04:48;;;;;;;3.88;2.35;;;22.60;64.40;;;;;;6242471;28;20090;-70
2023/06/13 05:07:55;;;;;;;4.85;2.15;;;22.60;64.40;;;;;;6243526;28;20033;-70
2023/06/13 05:10:58;;;;;;;5.43;2.22;;;22.60;64.30;;;;;;6219532;28;20044;-70
2023/06/13 05:13:59;;;;;;;3.83;2.47;;;22.60;64.50;;;;;;6219567;28;20081;-69
2023/06/13 05:17:05;;;;;;;8.25;2.10;;;22.50;64.60;;;;;;6243963;28;20128;-69
2023/06/13 05:20:07;;;;;;;3.13;1.75;;;22.50;65.00;;;;;;6243875;28;20026;-69
2023/06/13 05:23:08;;;;;;;7.78;2.03;;;22.50;65.00;;;;;;6241788;28;20486;-69
2023/06/13 05:26:10;;;;;;;6.25;2.20;;;22.50;65.00;;;;;;6243526;28;20025;-69
2023/06/13 05:29:11;;;;;;;2.22;1.83;;;22.60;65.00;;;;;;6243575;28;20031;-69
2023/06/13 05:32:12;;;;;;;4.60;1.70;;;22.60;65.00;;;;;;6241690;28;20030;-69
2023/06/13 05:35:13;;;;;;;2.40;1.90;;;22.60;64.90;;;;;;6243381;28;20025;-69
2023/06/13 05:38:14;;;;;;;7.68;2.17;;;22.70;64.90;;;;;;6242839;28;20032;-69
2023/06/13 05:41:15;;;;;;;2.88;1.80;;;22.70;64.80;;;;;;6242490;28;20037;-68
2023/06/13 05:44:16;;;;;;;2.95;1.58;;;22.70;64.70;;;;;;6242934;28;20128;-69
2023/06/13 05:47:17;;;;;;;5.00;2.08;;;22.80;64.70;;;;;;6241406;28;20037;-70
2023/06/13 05:50:18;;;;;;;3.15;1.90;;;22.80;64.60;;;;;;6242892;28;20029;-70
2023/06/13 05:53:19;;;;;;;6.72;2.13;;;22.90;64.50;;;;;;6242837;28;20033;-69
2023/06/13 05:56:20;;;;;;;5.63;2.00;;;22.90;64.20;;;;;;6242852;28;20017;-69
2023/06/13 05:59:21;;;;;;;8.57;2.20;;;23.00;64.20;;;;;;6242695;28;20501;-69
2023/06/13 06:02:21;;;;;;;4.43;1.95;;;23.00;63.90;;;;;;6242080;28;20123;-71
2023/06/13 06:05:24;;;;;;;4.85;1.67;;;23.00;63.80;;;;;;6241996;28;20018;-70
2023/06/13 06:08:25;;;;;;;3.88;2.22;;;23.00;63.80;;;;;;6242194;28;20103;-70
2023/06/13 06:11:27;;;;;;;4.57;2.28;;;23.10;63.80;;;;;;6242238;28;20043;-69
2023/06/13 06:14:27;;;;;;;4.15;2.03;;;23.10;63.40;;;;;;6242427;28;20053;-70
2023/06/13 06:17:28;;;;;;;4.35;2.20;;;23.20;63.20;;;;;;6242429;28;20499;-70
2023/06/13 06:20:29;;;;;;;3.65;2.38;;;23.20;63.10;;;;;;6241968;28;20046;-70
2023/06/13 06:23:30;;;;;;;6.88;2.45;;;23.30;63.00;;;;;;6223960;28;20057;-69
2023/06/13 06:26:31;;;;;;;4.32;1.95;;;23.40;62.90;;;;;;6241701;28;20033;-70
2023/06/13 06:29:32;;;;;;;7.90;1.95;;;23.50;62.70;;;;;;6241434;28;20497;-69
2023/06/13 06:32:33;;;;;;;13.05;2.00;;;23.60;62.30;;;;;;6241082;28;20150;-69
2023/06/13 06:35:35;;;;;;;8.20;2.10;;;23.70;62.00;;;;;;6241417;28;20018;-69
2023/06/13 06:38:36;;;;;;;9.15;1.98;;;23.80;61.50;;;;;;6239900;28;20516;-69
2023/06/13 06:41:37;;;;;;;2.42;2.10;;;23.90;61.30;;;;;;6241213;28;20486;-70
2023/06/13 06:44:37;;;;;;;4.35;1.95;;;24.00;61.10;;;;;;6239749;28;20034;-69
2023/06/13 06:47:40;;;;;;;3.25;1.92;;;24.10;60.80;;;;;;6239512;28;20037;-70
2023/06/13 06:50:41;;;;;;;2.95;1.60;;;24.30;60.30;;;;;;6241089;28;20442;-70
2023/06/13 06:53:43;;;;;;;2.42;1.80;;;24.50;59.70;;;;;;6241574;28;20160;-70
2023/06/13 06:56:44;;;;;;;4.68;1.88;;;24.60;59.50;;;;;;6240127;28;20029;-69
2023/06/13 06:59:45;;;;;;;4.13;2.30;;;24.70;58.90;;;;;;6241784;28;20410;-69
2023/06/13 07:02:46;;;;;;;4.78;2.85;;;24.80;58.80;;;;;;6239484;28;20064;-70
2023/06/13 07:05:46;;;;;;;3.20;2.17;;;24.90;58.80;;;;;;6239592;28;20453;-70
2023/06/13 07:08:48;;;;;;;11.68;2.97;;;24.90;58.60;;;;;;6237565;28;20030;-70
2023/06/13 07:11:50;;;;;;;4.63;2.55;;;25.00;58.30;;;;;;6238994;28;20025;-69
2023/06/13 07:14:51;;;;;;;12.38;2.85;;;25.00;58.10;;;;;;6240804;28;20029;-70
2023/06/13 07:17:53;;;;;;;6.45;2.78;;;25.00;57.90;;;;;;6240037;28;20517;-70
2023/06/13 07:20:54;;;;;;;6.70;2.78;;;25.00;58.00;;;;;;6239203;28;20087;-70
2023/06/13 07:23:55;;;;;;;11.75;2.80;;;25.10;57.90;;;;;;6240631;28;20037;-69
2023/06/13 07:26:55;;;;;;;6.35;2.30;;;25.30;57.80;;;;;;6239040;28;20030;-69
2023/06/13 07:29:57;;;;;;;7.78;2.50;;;25.40;57.30;;;;;;6240777;28;20822;-69
2023/06/13 07:32:57;;;;;;;6.57;2.60;;;25.60;56.70;;;;;;6238739;28;20666;-69
2023/06/13 07:35:58;;;;;;;3.25;2.20;;;25.90;56.30;;;;;;6240512;28;20061;-70
2023/06/13 07:39:09;;;;;;;7.38;2.63;;;26.00;55.70;;;;;;6238529;28;20060;-70
2023/06/13 07:42:10;;;;;;;6.28;2.13;;;26.00;55.70;;;;;;6240178;28;20679;-70
2023/06/13 07:45:11;;;;;;;3.55;1.80;;;26.10;55.20;;;;;;6239030;28;20395;-69
2023/06/13 07:48:12;;;;;;;3.35;1.10;;;26.00;54.70;;;;;;6240301;28;20052;-71
2023/06/13 07:51:15;;;;;;;4.18;1.45;;;26.00;54.40;;;;;;6239457;28;20109;-69
2023/06/13 07:54:16;;;;;;;6.53;1.77;;;25.90;53.90;;;;;;6238295;28;20584;-70
2023/06/13 07:57:17;;;;;;;2.30;1.50;;;25.80;53.50;;;;;;6238361;28;20164;-70
2023/06/13 08:00:18;;;;;;;7.32;1.67;;;25.70;53.60;;;;;;6239596;28;20030;-70
2023/06/13 08:03:19;;;;;;;4.68;1.30;;;25.60;53.70;;;;;;6239686;28;20029;-70
2023/06/13 08:06:19;;;;;;;2.70;1.40;;;25.50;53.80;;;;;;6239879;28;20441;-69
2023/06/13 08:09:22;;;;;;;2.92;1.63;;;25.40;53.70;;;;;;6239326;28;20116;-71
2023/06/13 08:12:23;;;;;;;4.05;1.52;;;25.30;53.80;;;;;;6239528;28;20533;-70
2023/06/13 08:15:24;;;;;;;3.47;1.60;;;25.20;54.10;;;;;;6238983;28;20065;-70
2023/06/13 08:18:25;;;;;;;2.63;1.50;;;25.20;54.00;;;;;;6238092;28;20086;-70
2023/06/13 08:21:26;;;;;;;10.85;1.88;;;25.10;54.20;;;;;;6239172;28;20478;-69
2023/06/13 08:24:27;;;;;;;3.55;1.58;;;25.00;54.30;;;;;;6239401;28;20041;-69
2023/06/13 08:27:28;;;;;;;3.33;1.63;;;25.00;54.50;;;;;;6238837;28;20185;-69
2023/06/13 08:30:29;;;;;;;5.10;2.00;;;25.00;54.50;;;;;;6239084;28;20048;-69
2023/06/13 08:33:30;;;;;;;4.47;2.53;;;25.00;54.50;;;;;;6239089;28;20041;-70
2023/06/13 08:36:35;;;;;;;2.78;2.08;;;25.00;54.60;;;;;;6239346;28;20144;-69
2023/06/13 08:39:36;;;;;;;7.30;1.92;;;25.10;54.80;;;;;;6239326;28;20048;-69
2023/06/13 08:42:38;;;;;;;4.65;1.33;;;25.10;54.80;;;;;;6237543;28;20037;-70
2023/06/13 08:45:39;;;;;;;3.42;2.50;;;25.20;54.80;;;;;;6239353;28;20485;-70
2023/06/13 08:48:41;;;;;;;5.68;2.90;;;25.30;54.80;;;;;;6239099;28;20316;-70
2023/06/13 08:51:45;;;;;;;3.33;2.10;;;25.50;54.80;;;;;;6239152;28;20533;-69
2023/06/13 08:54:53;;;;;;;2.83;1.70;;;25.60;54.70;;;;;;6239449;28;20033;-70
2023/06/13 08:57:54;;;;;;;3.65;1.83;;;25.90;54.60;;;;;;6239560;28;20037;-70
2023/06/13 09:00:57;;;;;;;5.85;2.30;;;26.10;54.40;;;;;;6238870;28;20032;-70
2023/06/13 09:03:59;;;;;;;3.63;1.50;;;26.30;54.10;;;;;;6237395;28;20033;-70
2023/06/13 09:07:01;;;;;;;3.40;1.98;;;26.70;53.50;;;;;;6238751;28;20033;-70
2023/06/13 09:10:02;;;;;;;2.45;1.65;;;26.90;53.10;;;;;;6237834;28;20052;-70
2023/06/13 09:13:04;;;;;;;6.85;1.80;;;27.10;52.90;;;;;;6238915;28;20026;-70
2023/06/13 09:16:06;;;;;;;2.97;1.80;;;27.30;52.60;;;;;;6237363;28;20439;-70
2023/06/13 09:19:06;;;;;;;7.25;3.05;;;27.30;52.10;;;;;;6239106;28;20119;-70
2023/06/13 09:22:07;;;;;;;9.13;3.17;;;27.30;51.90;;;;;;6239237;28;20053;-71
2023/06/13 09:25:16;;;;;;;9.32;3.33;;;27.40;51.80;;;;;;6238074;28;20041;-71
2023/06/13 09:28:33;;;;;;;8.40;2.20;;;27.50;51.60;;;;;;6239214;28;20049;-70
2023/06/13 09:31:37;;;;;;;6.35;1.92;;;27.70;51.40;;;;;;6237220;28;20066;-71
2023/06/13 09:34:39;;;;;;;2.85;1.83;;;27.80;50.90;;;;;;6239067;28;20075;-69
2023/06/13 09:37:41;;;;;;;1.92;1.50;;;27.90;50.80;;;;;;6238900;28;20131;-71
2023/06/13 09:40:46;;;;;;;3.80;1.92;;;28.00;50.60;;;;;;6240251;28;20110;-69
2023/06/13 09:43:52;;;;;;;2.13;1.50;;;28.10;50.20;;;;;;6242960;28;20462;-70
2023/06/13 09:46:54;;;;;;;5.55;2.30;;;28.10;50.10;;;;;;6242512;28;20481;-70
2023/06/13 09:49:56;;;;;;;7.38;2.63;;;28.20;49.90;;;;;;6243972;28;20163;-70
2023/06/13 09:52:58;;;;;;;4.25;2.53;;;28.20;49.60;;;;;;6243455;28;20619;-69
2023/06/13 09:55:59;;;;;;;2.75;1.33;;;28.20;49.40;;;;;;6243349;28;20017;-70
2023/06/13 09:59:01;;;;;;;2.75;1.35;;;28.10;49.50;;;;;;6243566;28;20056;-70
2023/06/13 10:02:02;;;;;;;3.78;2.35;;;28.20;49.60;;;;;;6242777;28;20033;-70
2023/06/13 10:05:03;;;;;;;5.70;2.30;;;28.30;49.50;;;;;;6242942;28;20082;-71
2023/06/13 10:08:04;;;;;;;8.38;2.80;;;28.40;49.30;;;;;;6242591;28;20044;-70
2023/06/13 10:11:18;;;;;;;8.90;2.75;;;28.50;49.10;;;;;;6241229;28;20021;-71
2023/06/13 10:14:23;;;;;;;4.60;1.70;;;28.50;48.70;;;;;;6241277;28;20029;-70
2023/06/13 10:17:29;;;;;;;5.43;1.70;;;28.60;48.60;;;;;;6241418;28;20103;-71
2023/06/13 10:20:30;;;;;;;3.78;2.10;;;28.70;48.60;;;;;;6242800;28;20029;-71
2023/06/13 10:23:35;;;;;;;8.70;3.03;;;28.80;48.20;;;;;;6242397;28;20501;-70
2023/06/13 10:26:40;;;;;;;5.88;1.90;;;28.80;48.10;;;;;;6240969;28;20033;-71
2023/06/13 10:30:13;;;;;;;10.27;1.73;;;29.00;48.00;;;;;;6242750;28;20039;-70
2023/06/13 10:33:42;;;;;;;2.40;1.60;;;29.10;47.50;;;;;;6242737;28;20037;-71
2023/06/13 10:37:15;;;;;;;2.40;1.23;;;29.20;47.20;;;;;;6242921;28;20039;-70
2023/06/13 10:40:33;;;;;;;1.67;1.20;;;29.30;46.60;;;;;;6198917;28;20184;-70
2023/06/13 10:43:51;;;;;;;1.10;1.00;;;29.30;46.00;;;;;;6215378;28;20046;-70
2023/06/13 10:46:52;;;;;;;2.72;1.50;;;29.40;45.80;;;;;;6216149;28;20034;-70
2023/06/13 10:49:53;;;;;;;3.53;1.80;;;29.60;45.50;;;;;;6215520;28;20041;-70
2023/06/13 10:52:55;;;;;;;7.82;1.83;;;29.80;45.10;;;;;;6216527;28;20037;-71
2023/06/13 10:56:02;;;;;;;2.63;1.10;;;30.10;44.40;;;;;;6216648;28;20303;-70
2023/06/13 10:59:06;;;;;;;2.15;1.33;;;30.30;43.50;;;;;;6215117;28;20181;-69
2023/06/13 11:02:17;;;;;;;4.78;1.17;;;30.50;43.10;;;;;;6214888;28;20038;-70
2023/06/13 11:05:18;;;;;;;1.20;0.98;;;30.70;42.00;;;;;;6198386;28;20186;-70
2023/06/13 11:08:21;;;;;;;1.80;0.90;;;30.80;41.40;;;;;;6227278;28;20037;-69
2023/06/13 11:11:24;;;;;;;0.93;0.88;;;30.90;40.90;;;;;;6215389;28;20135;-69
2023/06/13 11:14:32;;;;;;;1.42;0.90;;;31.10;40.40;;;;;;6198704;28;20022;-70
2023/06/13 11:17:34;;;;;;;1.90;1.00;;;31.20;40.00;;;;;;6233770;28;20178;-71
2023/06/13 11:20:48;;;;;;;0.70;0.70;;;31.50;39.50;;;;;;6239571;28;20032;-70
2023/06/13 11:23:54;;;;;;;1.45;1.08;;;31.60;38.50;;;;;;6240718;28;20501;-71
2023/06/13 11:26:57;;;;;;;2.35;1.17;;;31.60;38.70;;;;;;6241226;28;20037;-70
2023/06/13 11:29:58;;;;;;;0.90;0.90;;;31.70;38.70;;;;;;6239622;28;20472;-70
2023/06/13 11:33:00;;;;;;;1.15;1.00;;;32.00;38.20;;;;;;6240324;28;20034;-70
2023/06/13 11:36:01;;;;;;;2.38;0.90;;;32.30;37.70;;;;;;6239145;28;20041;-72
2023/06/13 11:39:07;;;;;;;1.17;0.82;;;32.50;37.30;;;;;;6239020;28;20044;-70
2023/06/13 11:42:10;;;;;;;1.70;1.27;;;32.80;37.00;;;;;;6240370;28;20072;-70
2023/06/13 11:45:11;;;;;;;1.73;1.10;;;32.90;36.50;;;;;;6238934;28;20029;-71
2023/06/13 11:48:17;;;;;;;0.85;0.80;;;33.00;35.80;;;;;;6238706;28;20130;-69
2023/06/13 11:51:18;;;;;;;1.95;1.15;;;33.50;35.40;;;;;;6240186;28;20021;-70
2023/06/13 11:54:29;;;;;;;0.80;0.80;;;33.80;34.70;;;;;;6238536;28;20041;-71
2023/06/13 11:57:50;;;;;;;2.78;1.15;;;33.90;34.40;;;;;;6222433;28;20029;-71
2023/06/13 12:00:57;;;;;;;2.47;1.20;;;34.30;34.10;;;;;;6238524;28;20049;-71
2023/06/13 12:03:58;;;;;;;0.90;0.82;;;35.40;32.80;;;;;;6240116;28;20375;-70
2023/06/13 12:07:03;;;;;;;1.02;0.90;;;36.30;31.00;;;;;;6240089;28;20052;-70
2023/06/13 12:10:05;;;;;;;1.80;0.70;;;37.20;29.90;;;;;;6240031;28;20469;-70
2023/06/13 12:13:06;;;;;;;1.60;1.17;;;37.90;29.10;;;;;;6240307;28;20021;-71
2023/06/13 12:16:07;;;;;;;1.67;0.95;;;37.50;28.70;;;;;;6240177;28;20547;-72
2023/06/13 12:19:09;;;;;;;0.82;0.82;;;37.00;28.70;;;;;;6240215;28;20042;-70
2023/06/13 12:22:10;;;;;;;3.38;1.02;;;36.60;29.10;;;;;;6237972;28;20078;-70
2023/06/13 12:25:12;;;;;;;1.25;0.95;;;36.40;29.30;;;;;;6240151;28;20125;-71
2023/06/13 12:28:15;;;;;;;0.90;0.80;;;36.50;29.40;;;;;;6240003;28;20118;-70
2023/06/13 12:31:16;;;;;;;1.35;0.90;;;37.00;29.10;;;;;;6238592;28;20473;-71
2023/06/13 12:34:30;;;;;;;0.70;0.55;;;37.60;28.30;;;;;;6240174;28;20065;-70
2023/06/13 12:37:35;;;;;;;1.73;1.08;;;38.10;27.60;;;;;;6240064;28;20369;-69
2023/06/13 12:40:38;;;;;;;1.77;0.77;;;38.60;27.30;;;;;;6240091;28;20064;-70
2023/06/13 12:43:43;;;;;;;1.83;0.98;;;38.80;26.90;;;;;;6237836;28;20089;-71
2023/06/13 12:46:49;;;;;;;2.08;0.90;;;38.90;26.90;;;;;;6239855;28;20061;-71
2023/06/13 12:49:50;;;;;;;0.80;0.80;;;39.20;26.80;;;;;;6254928;28;20029;-70
2023/06/13 12:53:07;;;;;;;3.13;1.25;;;39.60;26.30;;;;;;6238920;28;20683;-70
2023/06/13 12:56:08;;;;;;;2.90;1.17;;;40.00;26.10;;;;;;6239616;28;20037;-71
2023/06/13 12:59:09;;;;;;;1.95;1.30;;;40.50;25.70;;;;;;6239046;28;20030;-69
2023/06/13 13:02:15;;;;;;;2.42;1.00;;;40.80;25.20;;;;;;6237148;28;20099;-69
2023/06/13 13:05:17;;;;;;;2.38;1.02;;;41.10;24.90;;;;;;6239497;28;20109;-71
2023/06/13 13:08:18;;;;;;;1.10;1.00;;;41.50;24.40;;;;;;6224772;28;20446;-71
2023/06/13 13:11:19;;;;;;;1.17;0.88;;;41.90;24.10;;;;;;6221049;28;20410;-70
2023/06/13 13:14:20;;;;;;;1.65;0.95;;;42.40;23.60;;;;;;6240402;28;20027;-69
2023/06/13 13:17:21;;;;;;;3.47;0.82;;;42.10;23.30;;;;;;6244111;28;20065;-70
2023/06/13 13:20:22;;;;;;;1.27;0.90;;;41.90;23.40;;;;;;6244039;28;20099;-71
2023/06/13 13:23:22;;;;;;;1.40;1.02;;;41.70;23.50;;;;;;6243461;28;20469;-70
2023/06/13 13:26:23;;;;;;;6.65;1.13;;;40.90;23.90;;;;;;6243595;28;20033;-71
2023/06/13 13:29:24;;;;;;;1.52;0.90;;;40.50;24.40;;;;;;6243253;28;20064;-71
2023/06/13 13:32:25;;;;;;;4.97;1.13;;;40.60;24.30;;;;;;6243487;28;20368;-70
2023/06/13 13:35:26;;;;;;;3.15;1.35;;;40.50;24.40;;;;;;6243400;28;20075;-70
2023/06/13 13:38:27;;;;;;;1.90;0.82;;;40.70;24.20;;;;;;6243495;28;20056;-71
2023/06/13 13:41:33;;;;;;;2.58;1.52;;;41.20;23.70;;;;;;6233263;28;20087;-71
2023/06/13 13:44:34;;;;;;;6.03;1.00;;;40.80;23.90;;;;;;6219231;28;20478;-71
2023/06/13 13:47:35;;;;;;;3.35;1.10;;;40.70;24.30;;;;;;6217185;28;20091;-71
2023/06/13 13:50:36;;;;;;;5.05;1.05;;;40.90;24.10;;;;;;6257210;28;20208;-71
2023/06/13 13:53:37;;;;;;;4.50;1.00;;;41.60;23.70;;;;;;6242859;28;20473;-71
2023/06/13 13:56:38;;;;;;;2.53;0.98;;;41.90;23.30;;;;;;6243616;28;20053;-70
2023/06/13 13:59:39;;;;;;;1.65;1.10;;;41.10;23.80;;;;;;6243013;28;20033;-70
2023/06/13 14:02:40;;;;;;;5.10;1.10;;;40.10;24.80;;;;;;6242776;28;20510;-70
2023/06/13 14:05:41;;;;;;;3.08;1.00;;;40.70;24.60;;;;;;6242999;28;20037;-71
2023/06/13 14:08:42;;;;;;;1.00;0.90;;;42.00;23.30;;;;;;6242746;28;20478;-70
2023/06/13 14:11:43;;;;;;;1.20;0.90;;;42.90;22.30;;;;;;6242559;28;20137;-70
2023/06/13 14:14:44;;;;;;;4.88;1.08;;;43.70;21.90;;;;;;6242269;28;20025;-70
2023/06/13 14:17:45;;;;;;;3.65;1.20;;;44.20;21.60;;;;;;6224167;28;20469;-70
2023/06/13 14:20:46;;;;;;;1.23;1.13;;;44.00;21.80;;;;;;6242128;28;20048;-70
2023/06/13 14:23:47;;;;;;;3.75;1.20;;;43.20;22.40;;;;;;6239924;28;20067;-70
2023/06/13 14:26:49;;;;;;;4.95;1.17;;;42.10;23.10;;;;;;6241803;28;20124;-70
2023/06/13 14:29:51;;;;;;;1.83;1.10;;;41.10;24.00;;;;;;6240890;28;20044;-71
2023/06/13 14:32:53;;;;;;;1.85;1.60;;;40.60;24.60;;;;;;6242313;28;20025;-70
2023/06/13 14:35:54;;;;;;;1.40;1.10;;;41.40;24.20;;;;;;6242081;28;20042;-71
2023/06/13 14:38:55;;;;;;;2.28;1.20;;;42.50;23.60;;;;;;6242107;28;20338;-71
2023/06/13 14:41:56;;;;;;;5.13;1.45;;;43.70;22.90;;;;;;6241425;28;20182;-70
2023/06/13 14:44:57;;;;;;;4.20;1.08;;;44.70;22.10;;;;;;6240143;28;20041;-70
2023/06/13 14:47:58;;;;;;;1.02;0.98;;;45.10;21.60;;;;;;6241955;28;20065;-71
2023/06/13 14:50:59;;;;;;;2.10;1.17;;;45.30;21.00;;;;;;6241921;28;20026;-70
2023/06/13 14:54:00;;;;;;;1.50;1.00;;;45.60;20.60;;;;;;6239931;28;20497;-71
2023/06/13 14:57:01;;;;;;;1.23;0.70;;;45.70;20.40;;;;;;6241813;28;20034;-71
2023/06/13 15:00:05;;;;;;;1.05;0.70;;;45.90;20.20;;;;;;6240214;28;20040;-71
2023/06/13 15:03:06;;;;;;;1.15;1.05;;;46.10;19.40;;;;;;6239922;28;20033;-70
2023/06/13 15:06:07;;;;;;;4.20;1.10;;;45.70;19.50;;;;;;6239574;28;20041;-70
2023/06/13 15:09:11;;;;;;;1.80;1.20;;;44.40;20.60;;;;;;6214526;28;20034;-71
2023/06/13 15:12:12;;;;;;;3.20;1.15;;;42.50;22.10;;;;;;6216463;28;20030;-71
2023/06/13 15:15:13;;;;;;;2.67;0.85;;;40.80;23.50;;;;;;6216945;28;20117;-71
2023/06/13 15:18:14;;;;;;;2.03;1.55;;;39.30;24.80;;;;;;6216824;28;20030;-72
2023/06/13 15:21:15;;;;;;;1.10;1.00;;;38.10;25.70;;;;;;6216338;28;20053;-71
2023/06/13 15:24:16;;;;;;;1.55;1.40;;;37.00;26.70;;;;;;6216378;28;20099;-70
2023/06/13 15:27:17;;;;;;;2.28;1.30;;;36.10;27.80;;;;;;6215341;28;20153;-71
2023/06/13 15:30:18;;;;;;;3.60;1.30;;;35.20;28.90;;;;;;6217871;28;20018;-70
2023/06/13 15:33:21;;;;;;;4.00;1.80;;;34.50;29.80;;;;;;6221187;28;20393;-71
2023/06/13 15:36:22;;;;;;;1.58;1.38;;;33.90;31.00;;;;;;6239202;28;20040;-70
2023/06/13 15:39:24;;;;;;;2.00;1.20;;;33.20;32.20;;;;;;6240590;28;20478;-71
2023/06/13 15:42:25;;;;;;;1.52;1.35;;;32.70;33.10;;;;;;6238802;28;20429;-70
2023/06/13 15:45:26;;;;;;;2.75;1.38;;;32.20;34.00;;;;;;6240487;28;20036;-69
2023/06/13 15:48:27;;;;;;;1.77;1.17;;;31.90;34.60;;;;;;6240332;28;20037;-71